Terminal Aerodrome Forecast
Issued by NWS

Home | Current Version | Previous Version | Text Only | Print | Product List | Glossary On
Versions: 1 2 3 4 5 6 7 8 9 10 11 12 13 14
591
FTUS42 KFFC 111135
TAFPDK
TAF
KPDK 111135Z 1112/1212 09004KT P6SM BKN035
     FM111400 09005KT P6SM BKN025
     FM112200 10006KT P6SM BKN015
     FM120100 10005KT P6SM VCSH BKN008
     FM120600 13004KT 4SM -RADZ BR OVC005=

USA.gov is the U.S. government's official web portal to all federal, state and local government web resources and services.